FDX43 TJBQ-KMEM
Flight info
| Callsign | FDX43 |
|---|---|
| Flight time | N/A |
| Altitude | 32000 |
| Route | HARBG Y421 SUMAC Y280 JAYMC Q116 GOOGY DCT WASER VANZE3 |
| Aircraft | B77L/H-SDE1E2E3FGHIJ2J3J4J5M1RWXY/LB1D1 |
Departure
| Time | 2026-04-28 21:11 |
|---|---|
| Airport | Rafael Hernández International Airport (TJBQ) |
Arrival
| Time | N/A |
|---|---|
| Airport | Memphis International Airport (KMEM) |
| Time | Latitude | Longitude | Altitude | Speed | Heading |
|---|---|---|---|---|---|
| 2026-04-28 21:04 | 18.49526 | -67.13316 | 232 ft | 0 kts | 347° |
| 2026-04-28 21:08 | 18.49529 | -67.13315 | 232 ft | 2 kts | 359° |
| 2026-04-28 21:08 | 18.49536 | -67.13280 | 235 ft | 12 kts | 91° |
| 2026-04-28 21:08 | 18.49550 | -67.13123 | 230 ft | 29 kts | 73° |
| 2026-04-28 21:09 | 18.49610 | -67.12921 | 229 ft | 29 kts | 72° |
| 2026-04-28 21:09 | 18.49673 | -67.12721 | 226 ft | 29 kts | 71° |
| 2026-04-28 21:09 | 18.49739 | -67.12523 | 225 ft | 29 kts | 71° |
| 2026-04-28 21:09 | 18.49805 | -67.12323 | 221 ft | 29 kts | 71° |
| 2026-04-28 21:10 | 18.49776 | -67.12151 | 224 ft | 19 kts | 159° |
| 2026-04-28 21:10 | 18.49715 | -67.12188 | 221 ft | 14 kts | 249° |
| 2026-04-28 21:10 | 18.49707 | -67.12212 | 223 ft | 15 kts | 250° |
| 2026-04-28 21:10 | 18.49574 | -67.12644 | 225 ft | 110 kts | 252° |
| 2026-04-28 21:11 | 18.49248 | -67.13727 | 250 ft | 196 kts | 252° |
| 2026-04-28 21:11 | 18.48808 | -67.15135 | 1086 ft | 200 kts | 252° |
| 2026-04-28 21:11 | 18.48370 | -67.16505 | 2308 ft | 201 kts | 257° |
| 2026-04-28 21:11 | 18.48467 | -67.18017 | 2536 ft | 223 kts | 298° |
| 2026-04-28 21:12 | 18.49438 | -67.19337 | 2750 ft | 242 kts | 314° |
| 2026-04-28 21:12 | 18.50641 | -67.20698 | 3207 ft | 260 kts | 313° |
| 2026-04-28 21:12 | 18.51878 | -67.22137 | 3952 ft | 269 kts | 312° |
| 2026-04-28 21:12 | 18.53134 | -67.23619 | 4786 ft | 273 kts | 312° |
| 2026-04-28 21:13 | 18.54395 | -67.25133 | 5643 ft | 276 kts | 311° |
| 2026-04-28 21:13 | 18.55660 | -67.26673 | 6502 ft | 279 kts | 311° |
| 2026-04-28 21:13 | 18.56930 | -67.28237 | 7277 ft | 281 kts | 310° |
| 2026-04-28 21:13 | 18.58198 | -67.29812 | 8123 ft | 283 kts | 309° |
| 2026-04-28 21:14 | 18.59469 | -67.31401 | 8939 ft | 285 kts | 309° |
| 2026-04-28 21:14 | 18.60748 | -67.33007 | 9672 ft | 287 kts | 309° |
| 2026-04-28 21:14 | 18.62043 | -67.34637 | 9989 ft | 292 kts | 309° |
| 2026-04-28 21:14 | 18.63357 | -67.36297 | 9979 ft | 295 kts | 309° |
| 2026-04-28 21:15 | 18.64682 | -67.37974 | 10103 ft | 305 kts | 309° |
| 2026-04-28 21:15 | 18.66077 | -67.39742 | 10294 ft | 330 kts | 309° |
| 2026-04-28 21:15 | 18.67602 | -67.41676 | 10478 ft | 355 kts | 309° |
| 2026-04-28 21:15 | 18.69229 | -67.43741 | 10861 ft | 371 kts | 309° |
| 2026-04-28 21:16 | 18.70904 | -67.45867 | 11477 ft | 380 kts | 309° |
| 2026-04-28 21:16 | 18.72601 | -67.48024 | 12221 ft | 384 kts | 309° |
| 2026-04-28 21:16 | 18.74317 | -67.50204 | 13009 ft | 387 kts | 309° |
| 2026-04-28 21:16 | 18.76045 | -67.52401 | 13790 ft | 391 kts | 308° |
| 2026-04-28 21:17 | 18.77792 | -67.54624 | 14452 ft | 395 kts | 308° |
| 2026-04-28 21:17 | 18.79556 | -67.56867 | 15119 ft | 398 kts | 308° |
| 2026-04-28 21:17 | 18.81332 | -67.59129 | 15803 ft | 402 kts | 308° |
| 2026-04-28 21:17 | 18.83096 | -67.61375 | 16448 ft | 405 kts | 308° |
| 2026-04-28 21:18 | 18.84907 | -67.63682 | 17092 ft | 408 kts | 308° |
| 2026-04-28 21:18 | 18.86730 | -67.66006 | 17722 ft | 412 kts | 308° |
| 2026-04-28 21:18 | 18.88564 | -67.68345 | 18340 ft | 415 kts | 308° |
| 2026-04-28 21:18 | 18.90414 | -67.70705 | 18880 ft | 418 kts | 308° |
| 2026-04-28 21:19 | 18.92282 | -67.73087 | 19392 ft | 421 kts | 308° |
| 2026-04-28 21:19 | 18.94157 | -67.75481 | 19936 ft | 424 kts | 307° |
| 2026-04-28 21:19 | 18.96044 | -67.77891 | 20457 ft | 428 kts | 307° |
| 2026-04-28 21:19 | 18.97947 | -67.80322 | 20973 ft | 431 kts | 307° |
| 2026-04-28 21:20 | 18.99839 | -67.82741 | 21474 ft | 434 kts | 307° |
| 2026-04-28 21:20 | 19.01770 | -67.85210 | 21968 ft | 437 kts | 307° |
| 2026-04-28 21:20 | 19.03715 | -67.87698 | 22458 ft | 440 kts | 307° |
| 2026-04-28 21:20 | 19.05672 | -67.90202 | 22951 ft | 443 kts | 307° |
| 2026-04-28 21:21 | 19.07640 | -67.92721 | 23419 ft | 446 kts | 306° |
| 2026-04-28 21:21 | 19.09624 | -67.95262 | 23849 ft | 449 kts | 306° |
| 2026-04-28 21:21 | 19.11620 | -67.97818 | 24276 ft | 450 kts | 306° |
| 2026-04-28 21:21 | 19.13615 | -68.00375 | 24714 ft | 452 kts | 306° |
| 2026-04-28 21:22 | 19.15616 | -68.02939 | 25145 ft | 453 kts | 306° |
| 2026-04-28 21:22 | 19.17624 | -68.05515 | 25558 ft | 454 kts | 306° |
| 2026-04-28 21:22 | 19.19643 | -68.08106 | 25968 ft | 456 kts | 306° |
| 2026-04-28 21:22 | 19.21663 | -68.10700 | 26369 ft | 458 kts | 305° |
| 2026-04-28 21:23 | 19.23691 | -68.13304 | 26783 ft | 459 kts | 305° |
| 2026-04-28 21:23 | 19.25727 | -68.15920 | 27201 ft | 460 kts | 305° |
| 2026-04-28 21:23 | 19.27741 | -68.18509 | 27602 ft | 462 kts | 305° |
| 2026-04-28 21:23 | 19.29787 | -68.21140 | 27985 ft | 463 kts | 304° |
| 2026-04-28 21:24 | 19.31839 | -68.23781 | 28353 ft | 465 kts | 304° |
| 2026-04-28 21:24 | 19.33901 | -68.26434 | 28706 ft | 467 kts | 304° |
| 2026-04-28 21:24 | 19.35971 | -68.29100 | 29041 ft | 469 kts | 304° |
| 2026-04-28 21:24 | 19.38048 | -68.31777 | 29352 ft | 471 kts | 304° |
| 2026-04-28 21:25 | 19.40131 | -68.34461 | 29646 ft | 473 kts | 304° |
| 2026-04-28 21:25 | 19.42223 | -68.37160 | 29940 ft | 475 kts | 304° |
| 2026-04-28 21:25 | 19.44319 | -68.39862 | 30260 ft | 474 kts | 304° |
| 2026-04-28 21:25 | 19.46410 | -68.42559 | 30603 ft | 474 kts | 304° |
| 2026-04-28 21:26 | 19.48503 | -68.45260 | 30957 ft | 473 kts | 303° |
| 2026-04-28 21:26 | 19.50588 | -68.47952 | 31288 ft | 473 kts | 303° |
| 2026-04-28 21:26 | 19.52649 | -68.50615 | 31623 ft | 472 kts | 303° |
| 2026-04-28 21:26 | 19.54733 | -68.53309 | 31972 ft | 472 kts | 303° |
| 2026-04-28 21:27 | 19.56814 | -68.56001 | 32320 ft | 471 kts | 303° |
| 2026-04-28 21:27 | 19.58893 | -68.58691 | 32672 ft | 471 kts | 303° |
| 2026-04-28 21:27 | 19.60966 | -68.61375 | 33026 ft | 470 kts | 303° |
| 2026-04-28 21:27 | 19.63038 | -68.64058 | 33368 ft | 469 kts | 303° |
| 2026-04-28 21:28 | 19.65101 | -68.66732 | 33720 ft | 468 kts | 302° |
| 2026-04-28 21:28 | 19.67168 | -68.69412 | 33929 ft | 471 kts | 302° |
| 2026-04-28 21:28 | 19.71326 | -68.74811 | 33985 ft | 471 kts | 302° |
| 2026-04-28 21:29 | 19.75453 | -68.80164 | 33992 ft | 466 kts | 302° |
| 2026-04-28 21:29 | 19.79545 | -68.85483 | 33994 ft | 465 kts | 302° |
| 2026-04-28 21:30 | 19.83636 | -68.90809 | 33994 ft | 464 kts | 302° |
| 2026-04-28 21:30 | 19.87707 | -68.96089 | 33993 ft | 465 kts | 303° |
| 2026-04-28 21:31 | 19.91994 | -69.01270 | 33999 ft | 467 kts | 305° |
| 2026-04-28 21:31 | 19.96365 | -69.06414 | 33982 ft | 468 kts | 305° |
| 2026-04-28 21:32 | 20.00718 | -69.11578 | 33986 ft | 468 kts | 305° |
| 2026-04-28 21:32 | 20.05024 | -69.16730 | 33987 ft | 468 kts | 305° |
| 2026-04-28 21:33 | 20.09346 | -69.21920 | 34003 ft | 468 kts | 305° |
| 2026-04-28 21:33 | 20.13671 | -69.27119 | 33986 ft | 469 kts | 305° |
| 2026-04-28 21:34 | 20.17996 | -69.32322 | 33990 ft | 468 kts | 305° |
| 2026-04-28 21:34 | 20.22317 | -69.37521 | 33994 ft | 468 kts | 305° |
| 2026-04-28 21:35 | 20.26632 | -69.42720 | 33990 ft | 468 kts | 305° |
| 2026-04-28 21:35 | 20.30920 | -69.47891 | 33997 ft | 467 kts | 305° |
| 2026-04-28 21:36 | 20.35219 | -69.53079 | 33993 ft | 467 kts | 305° |
| 2026-04-28 21:36 | 20.39514 | -69.58268 | 33994 ft | 466 kts | 305° |
| 2026-04-28 21:37 | 20.43803 | -69.63453 | 33992 ft | 466 kts | 305° |
| 2026-04-28 21:37 | 20.48057 | -69.68602 | 33996 ft | 465 kts | 305° |
| 2026-04-28 21:38 | 20.52335 | -69.73784 | 33994 ft | 465 kts | 305° |
| 2026-04-28 21:38 | 20.56609 | -69.78967 | 33994 ft | 465 kts | 305° |
| 2026-04-28 21:39 | 20.60879 | -69.84149 | 33998 ft | 464 kts | 305° |
| 2026-04-28 21:39 | 20.65142 | -69.89327 | 33996 ft | 464 kts | 305° |
| 2026-04-28 21:40 | 20.69400 | -69.94504 | 34003 ft | 464 kts | 305° |
| 2026-04-28 21:40 | 20.73658 | -69.99685 | 34000 ft | 464 kts | 305° |
| 2026-04-28 21:41 | 20.77887 | -70.04837 | 34000 ft | 463 kts | 304° |
| 2026-04-28 21:41 | 20.82134 | -70.10015 | 33997 ft | 463 kts | 304° |
| 2026-04-28 21:42 | 20.86381 | -70.15197 | 34005 ft | 462 kts | 304° |
| 2026-04-28 21:42 | 20.90589 | -70.20338 | 33999 ft | 462 kts | 304° |
| 2026-04-28 21:43 | 20.94821 | -70.25512 | 34004 ft | 461 kts | 304° |
| 2026-04-28 21:43 | 20.99046 | -70.30682 | 34006 ft | 461 kts | 304° |
| 2026-04-28 21:44 | 21.03260 | -70.35844 | 34001 ft | 460 kts | 304° |
| 2026-04-28 21:44 | 21.07466 | -70.41000 | 34005 ft | 460 kts | 304° |
| 2026-04-28 21:45 | 21.11668 | -70.46157 | 34008 ft | 459 kts | 304° |
| 2026-04-28 21:45 | 21.15868 | -70.51317 | 34013 ft | 459 kts | 304° |
| 2026-04-28 21:46 | 21.20033 | -70.56438 | 33996 ft | 459 kts | 304° |
| 2026-04-28 21:46 | 21.24222 | -70.61593 | 34001 ft | 458 kts | 304° |
| 2026-04-28 21:47 | 21.28410 | -70.66753 | 34007 ft | 458 kts | 304° |
| 2026-04-28 21:47 | 21.32600 | -70.71919 | 34007 ft | 458 kts | 304° |
| 2026-04-28 21:48 | 21.36783 | -70.77081 | 34011 ft | 458 kts | 304° |
| 2026-04-28 21:48 | 21.40964 | -70.82247 | 34009 ft | 458 kts | 304° |
| 2026-04-28 21:49 | 21.45140 | -70.87411 | 34012 ft | 458 kts | 304° |
| 2026-04-28 21:49 | 21.49291 | -70.92549 | 34012 ft | 458 kts | 304° |
| 2026-04-28 21:50 | 21.53470 | -70.97727 | 34011 ft | 458 kts | 304° |
| 2026-04-28 21:50 | 21.57618 | -71.02928 | 34020 ft | 456 kts | 302° |
| 2026-04-28 21:51 | 21.61205 | -71.08508 | 34013 ft | 452 kts | 297° |
| 2026-04-28 21:51 | 21.64630 | -71.14136 | 34012 ft | 452 kts | 297° |
| 2026-04-28 21:52 | 21.68085 | -71.19794 | 34015 ft | 453 kts | 297° |
| 2026-04-28 21:52 | 21.71559 | -71.25463 | 34010 ft | 454 kts | 298° |
| 2026-04-28 21:53 | 21.75041 | -71.31138 | 34012 ft | 454 kts | 298° |
| 2026-04-28 21:53 | 21.78529 | -71.36825 | 34016 ft | 455 kts | 298° |
| 2026-04-28 21:54 | 21.81990 | -71.42478 | 34015 ft | 455 kts | 298° |
| 2026-04-28 21:54 | 21.85474 | -71.48174 | 34020 ft | 456 kts | 298° |
| 2026-04-28 21:55 | 21.88962 | -71.53881 | 34012 ft | 456 kts | 298° |
| 2026-04-28 21:55 | 21.92449 | -71.59594 | 34012 ft | 456 kts | 298° |
| 2026-04-28 21:56 | 21.95937 | -71.65314 | 34019 ft | 457 kts | 298° |
| 2026-04-28 21:56 | 21.99429 | -71.71047 | 34015 ft | 457 kts | 298° |
| 2026-04-28 21:57 | 22.02895 | -71.76744 | 34013 ft | 457 kts | 298° |
| 2026-04-28 21:57 | 22.06387 | -71.82488 | 34016 ft | 457 kts | 298° |
| 2026-04-28 21:58 | 22.09287 | -71.87264 | 34019 ft | 458 kts | 298° |
| 2026-04-28 21:58 | 22.12772 | -71.93009 | 34024 ft | 458 kts | 298° |
| 2026-04-28 21:59 | 22.16259 | -71.98764 | 34020 ft | 458 kts | 298° |
| 2026-04-28 22:00 | 22.21486 | -72.07401 | 34021 ft | 458 kts | 298° |
| 2026-04-28 22:00 | 22.24974 | -72.13173 | 34025 ft | 458 kts | 298° |
| 2026-04-28 22:01 | 22.28433 | -72.18903 | 34024 ft | 458 kts | 298° |
| 2026-04-28 22:01 | 22.31915 | -72.24678 | 34024 ft | 458 kts | 298° |
| 2026-04-28 22:02 | 22.35391 | -72.30448 | 34024 ft | 458 kts | 298° |
| 2026-04-28 22:02 | 22.38867 | -72.36225 | 34025 ft | 458 kts | 298° |
| 2026-04-28 22:03 | 22.42340 | -72.42003 | 34026 ft | 458 kts | 298° |
| 2026-04-28 22:03 | 22.45807 | -72.47777 | 34024 ft | 458 kts | 298° |
| 2026-04-28 22:04 | 22.49276 | -72.53561 | 34026 ft | 458 kts | 298° |
| 2026-04-28 22:04 | 22.52740 | -72.59343 | 34024 ft | 457 kts | 298° |
| 2026-04-28 22:05 | 22.56176 | -72.65085 | 34029 ft | 457 kts | 298° |
| 2026-04-28 22:05 | 22.59634 | -72.70870 | 34034 ft | 457 kts | 298° |
| 2026-04-28 22:06 | 22.63082 | -72.76644 | 34028 ft | 457 kts | 298° |
| 2026-04-28 22:06 | 22.66529 | -72.82423 | 34034 ft | 457 kts | 298° |
| 2026-04-28 22:07 | 22.69978 | -72.88211 | 34030 ft | 456 kts | 298° |
| 2026-04-28 22:07 | 22.73404 | -72.93967 | 34037 ft | 456 kts | 298° |
| 2026-04-28 22:08 | 22.76843 | -72.99753 | 34035 ft | 456 kts | 298° |
| 2026-04-28 22:08 | 22.80277 | -73.05536 | 34035 ft | 456 kts | 298° |
| 2026-04-28 22:09 | 22.83713 | -73.11329 | 34037 ft | 457 kts | 298° |
| 2026-04-28 22:09 | 22.87130 | -73.17095 | 34039 ft | 457 kts | 298° |
| 2026-04-28 22:10 | 22.90563 | -73.22895 | 34041 ft | 457 kts | 298° |
| 2026-04-28 22:10 | 22.94001 | -73.28711 | 34040 ft | 457 kts | 298° |
| 2026-04-28 22:11 | 22.97433 | -73.34522 | 34044 ft | 458 kts | 298° |
| 2026-04-28 22:11 | 23.00869 | -73.40348 | 34036 ft | 458 kts | 298° |
| 2026-04-28 22:12 | 23.04307 | -73.46182 | 34038 ft | 458 kts | 298° |
| 2026-04-28 22:12 | 23.07742 | -73.52019 | 34041 ft | 459 kts | 298° |
| 2026-04-28 22:13 | 23.11179 | -73.57866 | 34044 ft | 459 kts | 298° |
| 2026-04-28 22:13 | 23.14594 | -73.63681 | 34041 ft | 459 kts | 298° |
| 2026-04-28 22:14 | 23.18029 | -73.69538 | 34044 ft | 459 kts | 298° |
| 2026-04-28 22:14 | 23.21464 | -73.75400 | 34045 ft | 460 kts | 298° |
| 2026-04-28 22:15 | 23.24898 | -73.81269 | 34043 ft | 460 kts | 298° |
| 2026-04-28 22:15 | 23.28335 | -73.87148 | 34044 ft | 460 kts | 298° |
| 2026-04-28 22:16 | 23.31767 | -73.93026 | 34044 ft | 461 kts | 298° |
| 2026-04-28 22:16 | 23.35204 | -73.98920 | 34047 ft | 461 kts | 298° |
| 2026-04-28 22:17 | 23.38613 | -74.04774 | 34050 ft | 461 kts | 298° |
| 2026-04-28 22:17 | 23.42048 | -74.10678 | 34051 ft | 462 kts | 298° |
| 2026-04-28 22:18 | 23.45484 | -74.16590 | 34052 ft | 462 kts | 298° |
| 2026-04-28 22:18 | 23.48923 | -74.22514 | 34050 ft | 462 kts | 298° |
| 2026-04-28 22:19 | 23.52356 | -74.28436 | 34053 ft | 463 kts | 298° |
| 2026-04-28 22:19 | 23.55796 | -74.34376 | 34056 ft | 463 kts | 298° |
| 2026-04-28 22:20 | 23.59216 | -74.40289 | 34057 ft | 463 kts | 298° |
| 2026-04-28 22:20 | 23.62653 | -74.46239 | 34056 ft | 464 kts | 298° |
| 2026-04-28 22:21 | 23.66097 | -74.52207 | 34052 ft | 465 kts | 298° |
| 2026-04-28 22:21 | 23.69541 | -74.58182 | 34054 ft | 465 kts | 298° |
| 2026-04-28 22:22 | 23.72984 | -74.64163 | 34056 ft | 466 kts | 298° |
| 2026-04-28 22:22 | 23.76431 | -74.70158 | 34057 ft | 466 kts | 298° |
| 2026-04-28 22:23 | 23.79768 | -74.75969 | 34059 ft | 467 kts | 298° |